sensor_id;sensor_type;location;lat;lon;timestamp;temperature;humidity
8422;DHT22;4248;48.196;10.924;2023-05-16T00:01:40;8.50;69.30
8422;DHT22;4248;48.196;10.924;2023-05-16T00:04:06;8.50;69.60
8422;DHT22;4248;48.196;10.924;2023-05-16T00:06:31;8.50;69.90
8422;DHT22;4248;48.196;10.924;2023-05-16T00:08:58;8.50;70.00
8422;DHT22;4248;48.196;10.924;2023-05-16T00:11:23;8.50;70.10
8422;DHT22;4248;48.196;10.924;2023-05-16T00:13:49;8.50;70.20
8422;DHT22;4248;48.196;10.924;2023-05-16T00:16:15;8.40;70.00
8422;DHT22;4248;48.196;10.924;2023-05-16T00:18:41;8.40;70.20
8422;DHT22;4248;48.196;10.924;2023-05-16T00:21:10;8.40;70.30
8422;DHT22;4248;48.196;10.924;2023-05-16T00:23:36;8.40;70.30
8422;DHT22;4248;48.196;10.924;2023-05-16T00:26:01;8.40;70.30
8422;DHT22;4248;48.196;10.924;2023-05-16T00:28:27;8.50;70.20
8422;DHT22;4248;48.196;10.924;2023-05-16T00:30:53;8.50;70.20
8422;DHT22;4248;48.196;10.924;2023-05-16T00:33:19;8.50;70.10
8422;DHT22;4248;48.196;10.924;2023-05-16T00:35:44;8.50;70.20
8422;DHT22;4248;48.196;10.924;2023-05-16T00:38:10;8.50;70.00
8422;DHT22;4248;48.196;10.924;2023-05-16T00:40:35;8.50;70.00
8422;DHT22;4248;48.196;10.924;2023-05-16T00:43:01;8.50;69.90
8422;DHT22;4248;48.196;10.924;2023-05-16T00:45:27;8.60;69.80
8422;DHT22;4248;48.196;10.924;2023-05-16T00:47:53;8.50;69.80
8422;DHT22;4248;48.196;10.924;2023-05-16T00:50:19;8.50;69.80
8422;DHT22;4248;48.196;10.924;2023-05-16T00:52:45;8.50;69.80
8422;DHT22;4248;48.196;10.924;2023-05-16T00:55:11;8.50;69.80
8422;DHT22;4248;48.196;10.924;2023-05-16T00:57:37;8.50;69.80
8422;DHT22;4248;48.196;10.924;2023-05-16T01:00:12;8.40;69.80
8422;DHT22;4248;48.196;10.924;2023-05-16T01:02:40;8.40;70.00
8422;DHT22;4248;48.196;10.924;2023-05-16T01:05:06;8.40;69.90
8422;DHT22;4248;48.196;10.924;2023-05-16T01:07:33;8.40;69.90
8422;DHT22;4248;48.196;10.924;2023-05-16T01:09:59;8.50;69.90
8422;DHT22;4248;48.196;10.924;2023-05-16T01:12:30;8.40;69.60
8422;DHT22;4248;48.196;10.924;2023-05-16T01:15:27;8.40;69.70
8422;DHT22;4248;48.196;10.924;2023-05-16T01:18:07;8.40;69.80
8422;DHT22;4248;48.196;10.924;2023-05-16T01:20:45;8.40;69.90
8422;DHT22;4248;48.196;10.924;2023-05-16T01:28:15;8.30;70.10
8422;DHT22;4248;48.196;10.924;2023-05-16T01:30:41;8.30;70.10
8422;DHT22;4248;48.196;10.924;2023-05-16T01:33:07;8.20;69.40
8422;DHT22;4248;48.196;10.924;2023-05-16T01:35:36;8.20;70.40
8422;DHT22;4248;48.196;10.924;2023-05-16T01:38:17;8.20;70.50
8422;DHT22;4248;48.196;10.924;2023-05-16T01:43:24;8.00;70.80
8422;DHT22;4248;48.196;10.924;2023-05-16T01:45:59;8.00;70.90
8422;DHT22;4248;48.196;10.924;2023-05-16T01:48:31;7.90;71.00
8422;DHT22;4248;48.196;10.924;2023-05-16T01:50:59;7.90;71.10
8422;DHT22;4248;48.196;10.924;2023-05-16T01:53:28;7.90;71.30
8422;DHT22;4248;48.196;10.924;2023-05-16T01:55:59;7.80;71.30
8422;DHT22;4248;48.196;10.924;2023-05-16T01:58:29;7.80;71.40
8422;DHT22;4248;48.196;10.924;2023-05-16T02:01:01;7.80;71.30
8422;DHT22;4248;48.196;10.924;2023-05-16T02:03:28;7.80;71.40
8422;DHT22;4248;48.196;10.924;2023-05-16T02:05:54;7.80;71.40
8422;DHT22;4248;48.196;10.924;2023-05-16T02:08:20;7.80;71.40
8422;DHT22;4248;48.196;10.924;2023-05-16T02:10:46;7.80;71.40
8422;DHT22;4248;48.196;10.924;2023-05-16T02:13:11;7.70;71.50
8422;DHT22;4248;48.196;10.924;2023-05-16T02:15:37;7.70;71.70
8422;DHT22;4248;48.196;10.924;2023-05-16T02:18:02;7.70;71.80
8422;DHT22;4248;48.196;10.924;2023-05-16T02:20:28;7.70;71.70
8422;DHT22;4248;48.196;10.924;2023-05-16T02:22:54;7.70;71.70
8422;DHT22;4248;48.196;10.924;2023-05-16T02:25:20;7.70;71.60
8422;DHT22;4248;48.196;10.924;2023-05-16T02:27:45;7.70;71.60
8422;DHT22;4248;48.196;10.924;2023-05-16T02:30:11;7.70;71.60
8422;DHT22;4248;48.196;10.924;2023-05-16T02:32:40;7.60;71.70
8422;DHT22;4248;48.196;10.924;2023-05-16T02:35:10;7.60;71.80
8422;DHT22;4248;48.196;10.924;2023-05-16T02:37:36;7.50;72.00
8422;DHT22;4248;48.196;10.924;2023-05-16T02:40:02;7.50;72.20
8422;DHT22;4248;48.196;10.924;2023-05-16T02:42:32;7.50;72.00
8422;DHT22;4248;48.196;10.924;2023-05-16T02:44:57;7.50;72.00
8422;DHT22;4248;48.196;10.924;2023-05-16T02:47:23;7.50;71.90
8422;DHT22;4248;48.196;10.924;2023-05-16T02:49:48;7.50;71.90
8422;DHT22;4248;48.196;10.924;2023-05-16T02:52:19;7.50;71.80
8422;DHT22;4248;48.196;10.924;2023-05-16T02:54:45;7.60;71.60
8422;DHT22;4248;48.196;10.924;2023-05-16T02:57:11;7.60;71.40
8422;DHT22;4248;48.196;10.924;2023-05-16T02:59:37;7.60;71.20
8422;DHT22;4248;48.196;10.924;2023-05-16T03:02:02;7.70;71.10
8422;DHT22;4248;48.196;10.924;2023-05-16T03:04:28;7.70;70.80
8422;DHT22;4248;48.196;10.924;2023-05-16T03:06:54;7.80;70.70
8422;DHT22;4248;48.196;10.924;2023-05-16T03:09:20;7.80;70.50
8422;DHT22;4248;48.196;10.924;2023-05-16T03:11:46;7.90;70.40
8422;DHT22;4248;48.196;10.924;2023-05-16T03:14:11;7.90;70.30
8422;DHT22;4248;48.196;10.924;2023-05-16T03:16:37;8.00;70.10
8422;DHT22;4248;48.196;10.924;2023-05-16T03:19:04;8.10;70.00
8422;DHT22;4248;48.196;10.924;2023-05-16T03:21:30;8.10;69.70
8422;DHT22;4248;48.196;10.924;2023-05-16T03:23:56;8.10;69.80
8422;DHT22;4248;48.196;10.924;2023-05-16T03:26:23;8.20;69.80
8422;DHT22;4248;48.196;10.924;2023-05-16T03:28:49;8.20;70.00
8422;DHT22;4248;48.196;10.924;2023-05-16T03:31:15;8.20;69.90
8422;DHT22;4248;48.196;10.924;2023-05-16T03:33:41;8.30;69.70
8422;DHT22;4248;48.196;10.924;2023-05-16T03:36:07;8.40;69.70
8422;DHT22;4248;48.196;10.924;2023-05-16T03:38:33;8.40;69.60
8422;DHT22;4248;48.196;10.924;2023-05-16T03:40:59;8.40;69.60
8422;DHT22;4248;48.196;10.924;2023-05-16T03:43:25;8.50;69.90
8422;DHT22;4248;48.196;10.924;2023-05-16T03:45:50;8.50;69.80
8422;DHT22;4248;48.196;10.924;2023-05-16T03:48:16;8.50;70.00
8422;DHT22;4248;48.196;10.924;2023-05-16T03:50:41;8.50;71.00
8422;DHT22;4248;48.196;10.924;2023-05-16T03:53:08;8.50;69.90
8422;DHT22;4248;48.196;10.924;2023-05-16T03:55:34;8.50;70.00
8422;DHT22;4248;48.196;10.924;2023-05-16T03:57:59;8.60;70.00
8422;DHT22;4248;48.196;10.924;2023-05-16T04:00:25;8.60;69.90
8422;DHT22;4248;48.196;10.924;2023-05-16T04:02:51;8.60;70.00
8422;DHT22;4248;48.196;10.924;2023-05-16T04:05:17;8.70;70.00
8422;DHT22;4248;48.196;10.924;2023-05-16T04:07:42;8.70;69.90
8422;DHT22;4248;48.196;10.924;2023-05-16T04:10:09;8.70;69.90
8422;DHT22;4248;48.196;10.924;2023-05-16T04:12:35;8.80;69.80
8422;DHT22;4248;48.196;10.924;2023-05-16T04:15:02;8.90;69.80
8422;DHT22;4248;48.196;10.924;2023-05-16T04:17:28;8.90;69.70
8422;DHT22;4248;48.196;10.924;2023-05-16T04:19:54;9.00;69.70
8422;DHT22;4248;48.196;10.924;2023-05-16T04:22:20;9.00;69.60
8422;DHT22;4248;48.196;10.924;2023-05-16T04:24:47;9.00;69.40
8422;DHT22;4248;48.196;10.924;2023-05-16T04:27:13;9.10;70.50
8422;DHT22;4248;48.196;10.924;2023-05-16T04:29:39;9.20;69.10
8422;DHT22;4248;48.196;10.924;2023-05-16T04:32:05;9.20;69.00
8422;DHT22;4248;48.196;10.924;2023-05-16T04:34:32;9.30;69.00
8422;DHT22;4248;48.196;10.924;2023-05-16T04:36:58;9.40;69.00
8422;DHT22;4248;48.196;10.924;2023-05-16T04:39:24;9.50;68.90
8422;DHT22;4248;48.196;10.924;2023-05-16T04:41:50;9.50;68.90
8422;DHT22;4248;48.196;10.924;2023-05-16T04:44:16;9.60;68.80
8422;DHT22;4248;48.196;10.924;2023-05-16T04:46:41;9.70;68.70
8422;DHT22;4248;48.196;10.924;2023-05-16T04:49:07;9.80;68.40
8422;DHT22;4248;48.196;10.924;2023-05-16T04:51:33;9.80;68.40
8422;DHT22;4248;48.196;10.924;2023-05-16T04:53:59;9.90;68.40
8422;DHT22;4248;48.196;10.924;2023-05-16T04:56:25;10.00;67.30
8422;DHT22;4248;48.196;10.924;2023-05-16T04:58:53;10.10;67.20
8422;DHT22;4248;48.196;10.924;2023-05-16T05:01:19;10.10;67.00
8422;DHT22;4248;48.196;10.924;2023-05-16T05:03:45;10.20;66.90
8422;DHT22;4248;48.196;10.924;2023-05-16T05:06:10;10.40;66.90
8422;DHT22;4248;48.196;10.924;2023-05-16T05:08:36;10.40;66.50
8422;DHT22;4248;48.196;10.924;2023-05-16T05:11:01;10.50;66.30
8422;DHT22;4248;48.196;10.924;2023-05-16T05:13:28;10.70;66.10
8422;DHT22;4248;48.196;10.924;2023-05-16T05:15:54;10.80;65.70
8422;DHT22;4248;48.196;10.924;2023-05-16T05:18:19;10.90;65.20
8422;DHT22;4248;48.196;10.924;2023-05-16T05:20:45;11.00;65.30
8422;DHT22;4248;48.196;10.924;2023-05-16T05:23:10;11.20;65.60
8422;DHT22;4248;48.196;10.924;2023-05-16T05:25:37;11.30;65.00
8422;DHT22;4248;48.196;10.924;2023-05-16T05:28:03;11.50;64.70
8422;DHT22;4248;48.196;10.924;2023-05-16T05:30:28;11.70;64.40
8422;DHT22;4248;48.196;10.924;2023-05-16T05:32:54;11.80;64.10
8422;DHT22;4248;48.196;10.924;2023-05-16T05:35:19;12.00;63.90
8422;DHT22;4248;48.196;10.924;2023-05-16T05:37:45;12.10;64.70
8422;DHT22;4248;48.196;10.924;2023-05-16T05:40:11;12.30;63.20
8422;DHT22;4248;48.196;10.924;2023-05-16T05:42:37;12.40;62.90
8422;DHT22;4248;48.196;10.924;2023-05-16T05:45:03;12.50;63.00
8422;DHT22;4248;48.196;10.924;2023-05-16T05:47:29;12.70;62.70
8422;DHT22;4248;48.196;10.924;2023-05-16T05:49:55;12.80;62.30
8422;DHT22;4248;48.196;10.924;2023-05-16T05:52:21;12.90;62.10
8422;DHT22;4248;48.196;10.924;2023-05-16T05:54:47;13.00;62.00
8422;DHT22;4248;48.196;10.924;2023-05-16T05:57:12;12.90;62.20
8422;DHT22;4248;48.196;10.924;2023-05-16T05:59:38;12.70;62.80
8422;DHT22;4248;48.196;10.924;2023-05-16T06:02:04;12.50;63.50
8422;DHT22;4248;48.196;10.924;2023-05-16T06:04:30;12.30;64.20
8422;DHT22;4248;48.196;10.924;2023-05-16T06:06:55;12.20;64.50
8422;DHT22;4248;48.196;10.924;2023-05-16T06:09:21;12.20;64.80
8422;DHT22;4248;48.196;10.924;2023-05-16T06:11:47;12.40;64.40
8422;DHT22;4248;48.196;10.924;2023-05-16T06:14:13;12.50;64.00
8422;DHT22;4248;48.196;10.924;2023-05-16T06:16:40;12.60;63.60
8422;DHT22;4248;48.196;10.924;2023-05-16T06:19:06;12.60;63.50
8422;DHT22;4248;48.196;10.924;2023-05-16T06:21:32;12.70;63.10
8422;DHT22;4248;48.196;10.924;2023-05-16T06:23:58;12.80;62.90
8422;DHT22;4248;48.196;10.924;2023-05-16T06:26:23;12.70;62.80
8422;DHT22;4248;48.196;10.924;2023-05-16T06:28:49;12.70;63.10
8422;DHT22;4248;48.196;10.924;2023-05-16T06:31:14;12.60;63.10
8422;DHT22;4248;48.196;10.924;2023-05-16T06:33:40;12.80;62.90
8422;DHT22;4248;48.196;10.924;2023-05-16T06:36:06;12.80;62.80
8422;DHT22;4248;48.196;10.924;2023-05-16T06:38:32;12.80;62.90
8422;DHT22;4248;48.196;10.924;2023-05-16T06:40:57;12.60;63.10
8422;DHT22;4248;48.196;10.924;2023-05-16T06:43:23;12.50;63.40
8422;DHT22;4248;48.196;10.924;2023-05-16T06:45:49;12.50;63.60
8422;DHT22;4248;48.196;10.924;2023-05-16T06:48:14;12.60;63.60
8422;DHT22;4248;48.196;10.924;2023-05-16T06:50:40;12.70;63.20
8422;DHT22;4248;48.196;10.924;2023-05-16T06:53:06;12.70;63.10
8422;DHT22;4248;48.196;10.924;2023-05-16T06:55:33;12.80;62.80
8422;DHT22;4248;48.196;10.924;2023-05-16T06:57:59;12.80;62.70
8422;DHT22;4248;48.196;10.924;2023-05-16T07:00:24;12.90;62.50
8422;DHT22;4248;48.196;10.924;2023-05-16T07:02:51;13.00;62.30
8422;DHT22;4248;48.196;10.924;2023-05-16T07:05:18;13.00;62.50
8422;DHT22;4248;48.196;10.924;2023-05-16T07:07:43;12.90;62.40
8422;DHT22;4248;48.196;10.924;2023-05-16T07:10:10;12.80;62.90
8422;DHT22;4248;48.196;10.924;2023-05-16T07:12:35;12.80;63.30
8422;DHT22;4248;48.196;10.924;2023-05-16T07:15:04;12.80;63.30
8422;DHT22;4248;48.196;10.924;2023-05-16T07:17:30;12.80;63.00
8422;DHT22;4248;48.196;10.924;2023-05-16T07:19:56;12.60;63.10
8422;DHT22;4248;48.196;10.924;2023-05-16T07:22:21;12.40;64.00
8422;DHT22;4248;48.196;10.924;2023-05-16T07:24:47;12.50;64.10
8422;DHT22;4248;48.196;10.924;2023-05-16T07:27:13;12.50;64.10
8422;DHT22;4248;48.196;10.924;2023-05-16T07:29:38;12.40;63.90
8422;DHT22;4248;48.196;10.924;2023-05-16T07:32:04;12.40;64.10
8422;DHT22;4248;48.196;10.924;2023-05-16T07:34:30;12.30;64.20
8422;DHT22;4248;48.196;10.924;2023-05-16T07:36:56;12.30;64.40
8422;DHT22;4248;48.196;10.924;2023-05-16T07:39:21;12.30;64.60
8422;DHT22;4248;48.196;10.924;2023-05-16T07:41:47;12.30;64.50
8422;DHT22;4248;48.196;10.924;2023-05-16T07:44:13;12.40;64.40
8422;DHT22;4248;48.196;10.924;2023-05-16T07:46:38;12.60;64.10
8422;DHT22;4248;48.196;10.924;2023-05-16T07:49:04;12.80;63.90
8422;DHT22;4248;48.196;10.924;2023-05-16T07:51:30;12.90;63.30
8422;DHT22;4248;48.196;10.924;2023-05-16T07:53:56;13.00;63.10
8422;DHT22;4248;48.196;10.924;2023-05-16T07:56:21;13.10;62.70
8422;DHT22;4248;48.196;10.924;2023-05-16T07:58:48;13.20;62.30
8422;DHT22;4248;48.196;10.924;2023-05-16T08:01:13;13.10;61.80
8422;DHT22;4248;48.196;10.924;2023-05-16T08:03:39;13.10;62.40
8422;DHT22;4248;48.196;10.924;2023-05-16T08:06:05;13.10;62.10
8422;DHT22;4248;48.196;10.924;2023-05-16T08:08:30;13.10;62.10
8422;DHT22;4248;48.196;10.924;2023-05-16T08:10:56;13.30;62.00
8422;DHT22;4248;48.196;10.924;2023-05-16T08:13:21;13.20;62.20
8422;DHT22;4248;48.196;10.924;2023-05-16T08:15:47;13.20;62.30
8422;DHT22;4248;48.196;10.924;2023-05-16T08:18:13;13.20;62.20
8422;DHT22;4248;48.196;10.924;2023-05-16T08:20:40;13.40;61.80
8422;DHT22;4248;48.196;10.924;2023-05-16T08:23:07;13.30;61.50
8422;DHT22;4248;48.196;10.924;2023-05-16T08:25:32;13.40;61.50
8422;DHT22;4248;48.196;10.924;2023-05-16T08:27:58;13.40;61.30
8422;DHT22;4248;48.196;10.924;2023-05-16T08:30:26;13.30;61.10
8422;DHT22;4248;48.196;10.924;2023-05-16T08:32:52;13.40;61.10
8422;DHT22;4248;48.196;10.924;2023-05-16T08:35:17;13.50;60.80
8422;DHT22;4248;48.196;10.924;2023-05-16T08:37:43;13.50;60.70
8422;DHT22;4248;48.196;10.924;2023-05-16T08:40:09;13.70;60.40
8422;DHT22;4248;48.196;10.924;2023-05-16T08:42:36;13.80;60.00
8422;DHT22;4248;48.196;10.924;2023-05-16T08:45:02;13.80;60.00
8422;DHT22;4248;48.196;10.924;2023-05-16T08:47:30;13.90;59.80
8422;DHT22;4248;48.196;10.924;2023-05-16T08:49:57;13.90;59.40
8422;DHT22;4248;48.196;10.924;2023-05-16T08:52:26;13.90;59.00
8422;DHT22;4248;48.196;10.924;2023-05-16T08:54:56;13.90;58.80
8422;DHT22;4248;48.196;10.924;2023-05-16T08:57:22;14.10;58.50
8422;DHT22;4248;48.196;10.924;2023-05-16T08:59:48;14.20;57.80
8422;DHT22;4248;48.196;10.924;2023-05-16T09:02:14;14.20;58.20
8422;DHT22;4248;48.196;10.924;2023-05-16T09:04:40;14.20;58.20
8422;DHT22;4248;48.196;10.924;2023-05-16T09:07:07;14.20;57.70
8422;DHT22;4248;48.196;10.924;2023-05-16T09:09:33;14.30;57.40
8422;DHT22;4248;48.196;10.924;2023-05-16T09:11:58;14.40;57.40
8422;DHT22;4248;48.196;10.924;2023-05-16T09:14:24;14.70;56.70
8422;DHT22;4248;48.196;10.924;2023-05-16T09:17:07;15.20;56.40
8422;DHT22;4248;48.196;10.924;2023-05-16T09:19:40;15.40;55.00
8422;DHT22;4248;48.196;10.924;2023-05-16T09:22:11;15.30;55.30
8422;DHT22;4248;48.196;10.924;2023-05-16T09:24:39;15.10;56.10
8422;DHT22;4248;48.196;10.924;2023-05-16T09:27:12;14.90;56.10
8422;DHT22;4248;48.196;10.924;2023-05-16T09:29:42;14.80;56.10
8422;DHT22;4248;48.196;10.924;2023-05-16T09:32:12;14.80;56.10
8422;DHT22;4248;48.196;10.924;2023-05-16T09:34:46;15.00;56.20
8422;DHT22;4248;48.196;10.924;2023-05-16T09:37:17;15.40;54.50
8422;DHT22;4248;48.196;10.924;2023-05-16T09:39:47;15.60;52.90
8422;DHT22;4248;48.196;10.924;2023-05-16T09:42:14;15.70;52.50
8422;DHT22;4248;48.196;10.924;2023-05-16T09:44:41;15.80;52.80
8422;DHT22;4248;48.196;10.924;2023-05-16T09:47:10;15.90;52.60
8422;DHT22;4248;48.196;10.924;2023-05-16T09:49:36;15.80;52.20
8422;DHT22;4248;48.196;10.924;2023-05-16T09:52:02;15.60;52.00
8422;DHT22;4248;48.196;10.924;2023-05-16T09:54:30;15.60;52.50
8422;DHT22;4248;48.196;10.924;2023-05-16T09:56:56;15.50;52.70
8422;DHT22;4248;48.196;10.924;2023-05-16T09:59:21;15.50;52.90
8422;DHT22;4248;48.196;10.924;2023-05-16T10:01:48;15.50;52.50
8422;DHT22;4248;48.196;10.924;2023-05-16T10:04:15;15.40;52.70
8422;DHT22;4248;48.196;10.924;2023-05-16T10:06:41;15.10;52.70
8422;DHT22;4248;48.196;10.924;2023-05-16T10:09:10;15.10;53.50
8422;DHT22;4248;48.196;10.924;2023-05-16T10:11:38;15.10;53.40
8422;DHT22;4248;48.196;10.924;2023-05-16T10:14:06;15.00;53.50
8422;DHT22;4248;48.196;10.924;2023-05-16T10:16:34;15.00;53.90
8422;DHT22;4248;48.196;10.924;2023-05-16T10:19:02;15.10;53.80
8422;DHT22;4248;48.196;10.924;2023-05-16T10:21:28;15.10;53.80
8422;DHT22;4248;48.196;10.924;2023-05-16T10:23:57;15.10;53.80
8422;DHT22;4248;48.196;10.924;2023-05-16T10:26:23;15.00;54.40
8422;DHT22;4248;48.196;10.924;2023-05-16T10:28:50;15.00;54.30
8422;DHT22;4248;48.196;10.924;2023-05-16T10:31:17;15.00;54.10
8422;DHT22;4248;48.196;10.924;2023-05-16T10:33:44;15.20;53.90
8422;DHT22;4248;48.196;10.924;2023-05-16T10:36:10;15.20;53.80
8422;DHT22;4248;48.196;10.924;2023-05-16T10:38:38;15.40;53.40
8422;DHT22;4248;48.196;10.924;2023-05-16T10:41:04;15.60;52.70
8422;DHT22;4248;48.196;10.924;2023-05-16T10:43:31;15.90;52.20
8422;DHT22;4248;48.196;10.924;2023-05-16T10:46:08;16.00;51.70
8422;DHT22;4248;48.196;10.924;2023-05-16T10:48:40;16.10;51.30
8422;DHT22;4248;48.196;10.924;2023-05-16T10:51:35;16.30;51.10
8422;DHT22;4248;48.196;10.924;2023-05-16T10:54:07;16.50;50.50
8422;DHT22;4248;48.196;10.924;2023-05-16T10:56:33;16.40;50.10
8422;DHT22;4248;48.196;10.924;2023-05-16T10:59:00;16.30;50.50
8422;DHT22;4248;48.196;10.924;2023-05-16T11:06:42;16.20;51.20
8422;DHT22;4248;48.196;10.924;2023-05-16T11:11:53;16.20;51.50
8422;DHT22;4248;48.196;10.924;2023-05-16T11:24:32;16.70;50.00
8422;DHT22;4248;48.196;10.924;2023-05-16T11:27:00;16.70;49.60
8422;DHT22;4248;48.196;10.924;2023-05-16T11:29:35;16.70;49.30
8422;DHT22;4248;48.196;10.924;2023-05-16T11:32:02;17.00;48.90
8422;DHT22;4248;48.196;10.924;2023-05-16T11:34:35;17.00;48.10
8422;DHT22;4248;48.196;10.924;2023-05-16T11:37:02;17.00;48.50
8422;DHT22;4248;48.196;10.924;2023-05-16T11:39:30;16.90;48.80
8422;DHT22;4248;48.196;10.924;2023-05-16T11:41:56;17.00;48.50
8422;DHT22;4248;48.196;10.924;2023-05-16T11:44:22;16.90;48.70
8422;DHT22;4248;48.196;10.924;2023-05-16T11:46:47;16.60;49.10
8422;DHT22;4248;48.196;10.924;2023-05-16T11:49:13;16.60;49.10
8422;DHT22;4248;48.196;10.924;2023-05-16T11:51:42;17.00;48.30
8422;DHT22;4248;48.196;10.924;2023-05-16T11:54:09;17.00;47.90
8422;DHT22;4248;48.196;10.924;2023-05-16T11:56:35;16.90;47.90
8422;DHT22;4248;48.196;10.924;2023-05-16T11:59:01;17.00;47.30
8422;DHT22;4248;48.196;10.924;2023-05-16T12:01:38;17.00;46.40
8422;DHT22;4248;48.196;10.924;2023-05-16T12:04:14;16.70;46.50
8422;DHT22;4248;48.196;10.924;2023-05-16T12:06:41;16.60;46.80
8422;DHT22;4248;48.196;10.924;2023-05-16T12:09:13;16.50;46.00
8422;DHT22;4248;48.196;10.924;2023-05-16T12:11:41;16.60;46.10
8422;DHT22;4248;48.196;10.924;2023-05-16T12:14:08;16.70;46.10
8422;DHT22;4248;48.196;10.924;2023-05-16T12:16:35;16.90;45.30
8422;DHT22;4248;48.196;10.924;2023-05-16T12:19:02;16.90;44.80
8422;DHT22;4248;48.196;10.924;2023-05-16T12:21:32;17.00;44.80
8422;DHT22;4248;48.196;10.924;2023-05-16T12:23:58;16.90;43.30
8422;DHT22;4248;48.196;10.924;2023-05-16T12:26:28;16.90;43.10
8422;DHT22;4248;48.196;10.924;2023-05-16T12:28:58;16.90;42.80
8422;DHT22;4248;48.196;10.924;2023-05-16T12:31:27;17.00;42.70
8422;DHT22;4248;48.196;10.924;2023-05-16T12:33:55;16.90;42.90
8422;DHT22;4248;48.196;10.924;2023-05-16T12:36:21;16.90;43.00
8422;DHT22;4248;48.196;10.924;2023-05-16T12:38:48;17.00;43.10
8422;DHT22;4248;48.196;10.924;2023-05-16T12:41:20;17.20;42.90
8422;DHT22;4248;48.196;10.924;2023-05-16T12:43:46;17.60;42.20
8422;DHT22;4248;48.196;10.924;2023-05-16T12:46:12;17.30;41.20
8422;DHT22;4248;48.196;10.924;2023-05-16T12:48:39;17.10;42.60
8422;DHT22;4248;48.196;10.924;2023-05-16T12:51:14;16.80;42.70
8422;DHT22;4248;48.196;10.924;2023-05-16T12:53:45;16.70;43.10
8422;DHT22;4248;48.196;10.924;2023-05-16T12:56:12;16.50;43.30
8422;DHT22;4248;48.196;10.924;2023-05-16T12:58:38;16.20;44.10
8422;DHT22;4248;48.196;10.924;2023-05-16T13:01:04;15.80;43.80
8422;DHT22;4248;48.196;10.924;2023-05-16T13:03:31;15.50;44.20
8422;DHT22;4248;48.196;10.924;2023-05-16T13:05:57;15.10;44.70
8422;DHT22;4248;48.196;10.924;2023-05-16T13:08:23;14.90;45.40
8422;DHT22;4248;48.196;10.924;2023-05-16T13:10:49;14.70;46.20
8422;DHT22;4248;48.196;10.924;2023-05-16T13:13:15;14.40;47.60
8422;DHT22;4248;48.196;10.924;2023-05-16T13:15:41;14.10;48.80
8422;DHT22;4248;48.196;10.924;2023-05-16T13:18:07;13.90;50.10
8422;DHT22;4248;48.196;10.924;2023-05-16T13:20:32;13.70;51.20
8422;DHT22;4248;48.196;10.924;2023-05-16T13:22:58;13.60;53.30
8422;DHT22;4248;48.196;10.924;2023-05-16T13:25:24;13.40;55.00
8422;DHT22;4248;48.196;10.924;2023-05-16T13:27:49;13.20;57.10
8422;DHT22;4248;48.196;10.924;2023-05-16T13:30:15;13.20;57.10
8422;DHT22;4248;48.196;10.924;2023-05-16T13:32:41;13.10;58.30
8422;DHT22;4248;48.196;10.924;2023-05-16T13:35:07;13.00;59.50
8422;DHT22;4248;48.196;10.924;2023-05-16T13:37:33;12.80;60.00
8422;DHT22;4248;48.196;10.924;2023-05-16T13:39:59;12.90;59.90
8422;DHT22;4248;48.196;10.924;2023-05-16T13:42:25;12.80;59.80
8422;DHT22;4248;48.196;10.924;2023-05-16T13:44:51;12.80;60.70
8422;DHT22;4248;48.196;10.924;2023-05-16T13:47:16;12.90;60.30
8422;DHT22;4248;48.196;10.924;2023-05-16T13:49:42;12.90;60.20
8422;DHT22;4248;48.196;10.924;2023-05-16T13:52:08;12.90;60.50
8422;DHT22;4248;48.196;10.924;2023-05-16T13:54:34;12.90;61.00
8422;DHT22;4248;48.196;10.924;2023-05-16T13:56:59;12.80;61.60
8422;DHT22;4248;48.196;10.924;2023-05-16T13:59:26;12.80;61.90
8422;DHT22;4248;48.196;10.924;2023-05-16T14:01:52;12.80;62.40
8422;DHT22;4248;48.196;10.924;2023-05-16T14:04:17;12.80;62.90
8422;DHT22;4248;48.196;10.924;2023-05-16T14:06:43;12.80;62.90
8422;DHT22;4248;48.196;10.924;2023-05-16T14:09:08;12.90;62.20
8422;DHT22;4248;48.196;10.924;2023-05-16T14:11:35;13.00;62.00
8422;DHT22;4248;48.196;10.924;2023-05-16T14:14:00;13.00;62.30
8422;DHT22;4248;48.196;10.924;2023-05-16T14:16:26;13.10;62.40
8422;DHT22;4248;48.196;10.924;2023-05-16T14:18:51;13.10;62.50
8422;DHT22;4248;48.196;10.924;2023-05-16T14:21:17;13.20;62.40
8422;DHT22;4248;48.196;10.924;2023-05-16T14:23:44;13.20;62.60
8422;DHT22;4248;48.196;10.924;2023-05-16T14:26:09;13.00;63.10
8422;DHT22;4248;48.196;10.924;2023-05-16T14:28:35;12.90;63.60
8422;DHT22;4248;48.196;10.924;2023-05-16T14:31:01;12.80;64.00
8422;DHT22;4248;48.196;10.924;2023-05-16T14:33:27;12.80;64.30
8422;DHT22;4248;48.196;10.924;2023-05-16T14:35:52;12.80;64.00
8422;DHT22;4248;48.196;10.924;2023-05-16T14:38:19;12.90;63.30
8422;DHT22;4248;48.196;10.924;2023-05-16T14:40:45;13.00;62.90
8422;DHT22;4248;48.196;10.924;2023-05-16T14:43:10;13.00;62.90
8422;DHT22;4248;48.196;10.924;2023-05-16T14:45:37;13.00;62.90
8422;DHT22;4248;48.196;10.924;2023-05-16T14:48:05;12.90;63.40
8422;DHT22;4248;48.196;10.924;2023-05-16T14:50:31;12.80;63.90
8422;DHT22;4248;48.196;10.924;2023-05-16T14:52:56;12.80;64.00
8422;DHT22;4248;48.196;10.924;2023-05-16T14:55:22;12.60;66.80
8422;DHT22;4248;48.196;10.924;2023-05-16T14:57:48;12.40;66.80
8422;DHT22;4248;48.196;10.924;2023-05-16T15:00:14;12.40;66.70
8422;DHT22;4248;48.196;10.924;2023-05-16T15:02:41;12.40;66.80
8422;DHT22;4248;48.196;10.924;2023-05-16T15:05:08;12.50;66.70
8422;DHT22;4248;48.196;10.924;2023-05-16T15:07:33;12.50;66.70
8422;DHT22;4248;48.196;10.924;2023-05-16T15:09:59;12.50;67.00
8422;DHT22;4248;48.196;10.924;2023-05-16T15:12:25;12.60;66.80
8422;DHT22;4248;48.196;10.924;2023-05-16T15:14:50;12.70;66.90
8422;DHT22;4248;48.196;10.924;2023-05-16T15:17:16;12.70;66.90
8422;DHT22;4248;48.196;10.924;2023-05-16T15:19:42;12.80;67.00
8422;DHT22;4248;48.196;10.924;2023-05-16T15:22:07;12.90;66.70
8422;DHT22;4248;48.196;10.924;2023-05-16T15:24:35;12.90;67.10
8422;DHT22;4248;48.196;10.924;2023-05-16T15:27:01;12.80;67.00
8422;DHT22;4248;48.196;10.924;2023-05-16T15:29:28;12.70;66.90
8422;DHT22;4248;48.196;10.924;2023-05-16T15:31:53;12.50;67.60
8422;DHT22;4248;48.196;10.924;2023-05-16T15:34:19;12.50;68.10
8422;DHT22;4248;48.196;10.924;2023-05-16T15:36:45;12.30;68.80
8422;DHT22;4248;48.196;10.924;2023-05-16T15:39:10;12.30;68.80
8422;DHT22;4248;48.196;10.924;2023-05-16T15:41:36;12.40;68.60
8422;DHT22;4248;48.196;10.924;2023-05-16T15:44:01;12.50;68.40
8422;DHT22;4248;48.196;10.924;2023-05-16T15:46:27;12.70;67.60
8422;DHT22;4248;48.196;10.924;2023-05-16T15:48:54;12.80;67.00
8422;DHT22;4248;48.196;10.924;2023-05-16T15:51:20;12.80;67.00
8422;DHT22;4248;48.196;10.924;2023-05-16T15:53:47;12.80;67.00
8422;DHT22;4248;48.196;10.924;2023-05-16T15:56:12;12.70;67.10
8422;DHT22;4248;48.196;10.924;2023-05-16T15:58:38;12.70;67.60
8422;DHT22;4248;48.196;10.924;2023-05-16T16:01:04;12.70;67.80
8422;DHT22;4248;48.196;10.924;2023-05-16T16:03:29;12.70;67.70
8422;DHT22;4248;48.196;10.924;2023-05-16T16:05:55;12.60;67.80
8422;DHT22;4248;48.196;10.924;2023-05-16T16:08:21;12.50;68.30
8422;DHT22;4248;48.196;10.924;2023-05-16T16:10:46;12.40;68.60
8422;DHT22;4248;48.196;10.924;2023-05-16T16:13:12;12.40;68.80